createdAt,value
2022-07-28T00:00:33.825Z,16.80
2022-07-28T00:03:02.083Z,16.80
2022-07-28T00:05:32.368Z,16.80
2022-07-28T00:08:02.526Z,16.70
2022-07-28T00:10:32.281Z,16.70
2022-07-28T00:13:01.885Z,16.60
2022-07-28T00:15:32.157Z,16.60
2022-07-28T00:18:00.747Z,16.60
2022-07-28T00:20:30.654Z,16.60
2022-07-28T00:22:58.741Z,16.50
2022-07-28T00:25:26.959Z,16.50
2022-07-28T00:27:55.031Z,16.50
2022-07-28T00:30:27.563Z,16.40
2022-07-28T00:32:55.819Z,16.40
2022-07-28T00:35:23.998Z,16.30
2022-07-28T00:37:59.640Z,16.30
2022-07-28T00:40:48.399Z,16.20
2022-07-28T00:43:17.016Z,16.20
2022-07-28T00:45:47.480Z,16.20
2022-07-28T00:48:15.508Z,16.10
2022-07-28T00:50:45.452Z,16.10
2022-07-28T00:53:16.050Z,16.00
2022-07-28T00:56:04.084Z,16.00
2022-07-28T00:58:32.475Z,15.90
2022-07-28T01:01:01.949Z,15.90
2022-07-28T01:03:30.534Z,15.80
2022-07-28T01:06:07.712Z,15.80
2022-07-28T01:08:48.934Z,15.80
2022-07-28T01:11:31.077Z,15.70
2022-07-28T01:14:07.579Z,15.70
2022-07-28T01:16:41.760Z,15.60
2022-07-28T01:19:17.988Z,15.60
2022-07-28T01:21:47.833Z,15.60
2022-07-28T01:24:24.127Z,15.60
2022-07-28T01:27:00.941Z,15.60
2022-07-28T01:29:59.341Z,15.50
2022-07-28T01:32:32.603Z,15.40
2022-07-28T01:35:08.509Z,15.40
2022-07-28T01:37:41.360Z,15.30
2022-07-28T01:40:12.093Z,15.30
2022-07-28T01:42:45.953Z,15.20
2022-07-28T01:45:16.562Z,15.20
2022-07-28T01:47:48.770Z,15.10
2022-07-28T01:50:21.423Z,15.10
2022-07-28T01:52:51.258Z,15.00
2022-07-28T01:55:21.858Z,14.90
2022-07-28T01:57:51.935Z,14.90
2022-07-28T02:00:20.538Z,14.90
2022-07-28T02:02:52.141Z,14.90
2022-07-28T02:05:22.846Z,14.80
2022-07-28T02:07:52.389Z,14.70
2022-07-28T02:10:22.364Z,14.60
2022-07-28T02:12:51.659Z,14.60
2022-07-28T02:15:21.833Z,14.50
2022-07-28T02:17:53.635Z,14.50
2022-07-28T02:20:23.479Z,14.40
2022-07-28T02:22:53.084Z,14.30
2022-07-28T02:25:22.318Z,14.30
2022-07-28T02:27:54.409Z,14.30
2022-07-28T02:30:30.299Z,14.20
2022-07-28T02:33:04.768Z,14.10
2022-07-28T02:35:40.988Z,14.10
2022-07-28T02:38:20.196Z,14.10
2022-07-28T02:40:50.799Z,14.10
2022-07-28T02:43:25.352Z,14.00
2022-07-28T02:45:56.083Z,13.90
2022-07-28T02:48:28.898Z,13.90
2022-07-28T02:50:58.845Z,13.80
2022-07-28T02:53:28.437Z,13.80
2022-07-28T02:55:57.521Z,13.70
2022-07-28T02:58:27.605Z,13.80
2022-07-28T03:00:57.953Z,13.80
2022-07-28T03:03:27.846Z,13.70
2022-07-28T03:05:56.123Z,13.70
2022-07-28T03:08:24.246Z,13.70
2022-07-28T03:11:07.826Z,13.70
2022-07-28T03:13:35.973Z,13.70
2022-07-28T03:16:04.041Z,13.70
2022-07-28T03:18:33.678Z,13.60
2022-07-28T03:21:01.998Z,13.70
2022-07-28T03:23:34.087Z,13.60
2022-07-28T03:26:06.469Z,13.60
2022-07-28T03:28:36.451Z,13.60
2022-07-28T03:31:09.808Z,13.60
2022-07-28T03:33:40.089Z,13.70
2022-07-28T03:36:12.871Z,13.60
2022-07-28T03:38:48.202Z,13.60
2022-07-28T03:41:17.839Z,13.60
2022-07-28T03:43:46.594Z,13.60
2022-07-28T03:46:14.968Z,13.60
2022-07-28T03:48:44.848Z,13.70
2022-07-28T03:51:12.957Z,13.70
2022-07-28T03:53:42.429Z,13.70
2022-07-28T03:56:10.573Z,13.70
2022-07-28T03:58:38.634Z,13.80
2022-07-28T04:01:06.796Z,13.80
2022-07-28T04:03:43.228Z,13.80
2022-07-28T04:06:13.655Z,13.80
2022-07-28T04:08:41.681Z,13.80
2022-07-28T04:11:09.839Z,13.90
2022-07-28T04:13:37.886Z,13.90
2022-07-28T04:16:07.266Z,14.00
2022-07-28T04:18:35.820Z,14.00
2022-07-28T04:21:04.185Z,14.00
2022-07-28T04:23:33.833Z,14.10
2022-07-28T04:26:01.871Z,14.10
2022-07-28T04:28:29.968Z,14.20
2022-07-28T04:31:00.329Z,14.30
2022-07-28T04:33:28.425Z,14.30
2022-07-28T04:35:56.521Z,14.40
2022-07-28T04:38:24.582Z,14.50
2022-07-28T04:40:54.223Z,14.60
2022-07-28T04:43:22.983Z,14.70
2022-07-28T04:45:54.646Z,14.80
2022-07-28T04:48:23.385Z,15.00
2022-07-28T04:50:53.029Z,15.20
2022-07-28T04:53:22.490Z,15.40
2022-07-28T04:55:51.759Z,15.50
2022-07-28T04:58:24.018Z,15.60
2022-07-28T05:00:52.698Z,15.70
2022-07-28T05:03:21.530Z,15.80
2022-07-28T05:05:53.923Z,15.90
2022-07-28T05:08:25.830Z,16.00
2022-07-28T05:10:54.938Z,16.20
2022-07-28T05:13:25.360Z,16.70
2022-07-28T05:15:55.923Z,17.40
2022-07-28T05:18:24.017Z,18.20
2022-07-28T05:20:52.004Z,18.90
2022-07-28T05:23:20.216Z,19.60
2022-07-28T05:25:48.310Z,20.40
2022-07-28T05:28:17.081Z,21.10
2022-07-28T05:30:47.044Z,21.90
2022-07-28T05:33:16.580Z,22.90
2022-07-28T05:35:46.047Z,23.80
2022-07-28T05:38:14.545Z,24.80
2022-07-28T05:40:42.701Z,25.70
2022-07-28T05:43:10.691Z,26.50
2022-07-28T05:45:41.726Z,27.20
2022-07-28T05:48:11.483Z,27.90
2022-07-28T05:50:39.843Z,28.60
2022-07-28T05:53:07.899Z,29.30
2022-07-28T05:55:36.032Z,30.10
2022-07-28T05:58:24.500Z,30.70
2022-07-28T06:00:52.647Z,31.10
2022-07-28T06:03:22.133Z,31.50
2022-07-28T06:06:00.738Z,32.00
2022-07-28T06:08:38.739Z,32.20
2022-07-28T06:11:11.458Z,32.60
2022-07-28T06:13:40.545Z,32.90
2022-07-28T06:16:13.133Z,32.90
2022-07-28T06:18:44.063Z,32.70
2022-07-28T06:21:12.213Z,32.80
2022-07-28T06:23:40.577Z,33.00
2022-07-28T06:26:08.698Z,33.00
2022-07-28T06:28:36.902Z,33.00
2022-07-28T06:31:05.061Z,32.70
2022-07-28T06:33:33.201Z,32.20
2022-07-28T06:36:02.578Z,32.00
2022-07-28T06:38:31.395Z,31.60
2022-07-28T06:41:00.238Z,31.10
2022-07-28T06:43:28.278Z,30.30
2022-07-28T06:45:56.423Z,29.70
2022-07-28T06:48:31.385Z,29.00
2022-07-28T06:50:59.839Z,28.90
2022-07-28T06:53:33.998Z,29.20
2022-07-28T06:56:03.959Z,29.60
2022-07-28T06:58:32.535Z,30.20
2022-07-28T07:01:00.800Z,30.40
2022-07-28T07:03:28.904Z,31.00
2022-07-28T07:05:57.626Z,31.20
2022-07-28T07:08:25.814Z,31.60
2022-07-28T07:10:56.983Z,31.80
2022-07-28T07:13:25.312Z,31.50
2022-07-28T07:15:53.507Z,31.60
2022-07-28T07:18:21.751Z,31.80
2022-07-28T07:20:52.429Z,32.50
2022-07-28T07:23:20.521Z,32.70
2022-07-28T07:25:48.572Z,33.00
2022-07-28T07:28:18.186Z,33.20
2022-07-28T07:30:49.121Z,33.50
2022-07-28T07:33:17.191Z,33.90
2022-07-28T07:35:45.526Z,33.90
2022-07-28T07:38:13.607Z,33.80
2022-07-28T07:40:41.769Z,34.00
2022-07-28T07:43:09.978Z,34.00
2022-07-28T07:45:57.424Z,33.80
2022-07-28T07:48:25.487Z,34.20
2022-07-28T07:50:54.346Z,34.90
2022-07-28T07:53:23.008Z,35.30
2022-07-28T07:55:51.297Z,36.00
2022-07-28T07:58:19.455Z,36.10
2022-07-28T08:00:48.132Z,36.20
2022-07-28T08:03:22.421Z,36.70
2022-07-28T08:05:51.763Z,37.40
2022-07-28T08:08:19.883Z,38.10
2022-07-28T08:10:51.154Z,38.50
2022-07-28T08:13:20.442Z,38.90
2022-07-28T08:15:51.504Z,38.40
2022-07-28T08:18:21.364Z,38.10
2022-07-28T08:20:49.421Z,37.80
2022-07-28T08:23:19.586Z,37.70
2022-07-28T08:25:51.057Z,37.00
2022-07-28T08:28:19.188Z,36.70
2022-07-28T08:30:47.675Z,36.90
2022-07-28T08:33:15.879Z,37.30
2022-07-28T08:35:45.291Z,37.80
2022-07-28T08:38:13.401Z,38.40
2022-07-28T08:40:42.996Z,39.00
2022-07-28T08:43:18.444Z,39.30
2022-07-28T08:45:49.006Z,39.80
2022-07-28T08:48:18.985Z,40.20
2022-07-28T08:50:50.868Z,40.20
2022-07-28T08:53:20.766Z,40.40
2022-07-28T08:55:49.858Z,40.50
2022-07-28T08:58:18.956Z,40.60
2022-07-28T09:00:48.269Z,40.90
2022-07-28T09:03:18.164Z,40.40
2022-07-28T09:05:50.049Z,40.40
2022-07-28T09:08:19.787Z,40.50
2022-07-28T09:10:48.155Z,40.30
2022-07-28T09:13:16.837Z,40.20
2022-07-28T09:15:46.126Z,40.00
2022-07-28T09:18:14.934Z,39.70
2022-07-28T09:20:45.290Z,39.20
2022-07-28T09:23:42.402Z,38.70
2022-07-28T09:26:11.475Z,38.30
2022-07-28T09:28:49.948Z,37.70
2022-07-28T09:31:19.061Z,37.30
2022-07-28T09:33:58.604Z,37.10
2022-07-28T09:36:26.859Z,36.90
2022-07-28T09:38:57.739Z,36.70
2022-07-28T09:41:26.420Z,36.50
2022-07-28T09:43:55.739Z,36.30
2022-07-28T09:46:29.957Z,36.00
2022-07-28T09:48:59.991Z,35.80
2022-07-28T09:51:30.237Z,35.60
2022-07-28T09:54:11.600Z,35.30
2022-07-28T09:56:40.945Z,34.70
2022-07-28T09:59:09.352Z,34.40
2022-07-28T10:01:53.157Z,34.40
2022-07-28T10:04:34.692Z,34.50
2022-07-28T10:07:05.650Z,34.50
2022-07-28T10:09:35.579Z,34.50
2022-07-28T10:12:20.763Z,34.10
2022-07-28T10:14:50.492Z,33.60
2022-07-28T10:17:30.215Z,33.30
2022-07-28T10:19:59.281Z,33.10
2022-07-28T10:22:29.891Z,33.00
2022-07-28T10:25:01.748Z,32.80
2022-07-28T10:27:30.983Z,32.80
2022-07-28T10:30:01.117Z,32.50
2022-07-28T10:32:30.604Z,32.30
2022-07-28T10:35:04.505Z,32.30
2022-07-28T10:37:38.700Z,32.30
2022-07-28T10:40:11.127Z,32.00
2022-07-28T10:42:41.011Z,31.90
2022-07-28T10:45:11.608Z,31.70
2022-07-28T10:47:39.748Z,31.60
2022-07-28T10:50:08.879Z,31.50
2022-07-28T10:52:47.370Z,31.40
2022-07-28T10:55:32.267Z,31.40
2022-07-28T10:58:13.129Z,31.20
2022-07-28T11:00:59.791Z,30.90
2022-07-28T11:03:40.451Z,30.80
2022-07-28T11:06:28.782Z,30.70
2022-07-28T11:08:57.964Z,30.80
2022-07-28T11:11:47.182Z,30.70
2022-07-28T11:14:37.371Z,30.70
2022-07-28T11:17:24.366Z,30.70
2022-07-28T11:20:27.133Z,30.30
2022-07-28T11:22:51.841Z,30.10
2022-07-28T11:25:22.736Z,29.70
2022-07-28T11:28:06.448Z,29.30
2022-07-28T11:30:54.762Z,29.10
2022-07-28T11:33:25.115Z,29.10
2022-07-28T11:36:00.569Z,29.10
2022-07-28T11:38:32.608Z,29.10
2022-07-28T11:41:00.906Z,29.20
2022-07-28T11:43:39.788Z,29.20
2022-07-28T11:46:37.675Z,29.10
2022-07-28T11:49:27.727Z,29.00
2022-07-28T11:52:16.673Z,28.90
2022-07-28T11:54:50.879Z,28.90
2022-07-28T11:57:21.376Z,28.90
2022-07-28T11:59:56.763Z,29.00
2022-07-28T12:02:28.130Z,28.90
2022-07-28T12:05:09.460Z,28.70
2022-07-28T12:07:40.176Z,28.70
2022-07-28T12:13:29.442Z,28.70
2022-07-28T12:15:59.122Z,28.50
2022-07-28T12:18:27.902Z,28.40
2022-07-28T12:20:57.760Z,28.20
2022-07-28T12:23:45.445Z,28.10
2022-07-28T12:26:31.369Z,28.00
2022-07-28T12:29:13.228Z,27.90
2022-07-28T12:31:55.232Z,27.80
2022-07-28T12:34:29.258Z,27.70
2022-07-28T12:37:02.314Z,27.70
2022-07-28T12:39:32.612Z,27.70
2022-07-28T12:42:04.110Z,27.60
2022-07-28T12:44:37.047Z,27.60
2022-07-28T12:47:09.126Z,27.70
2022-07-28T12:49:38.441Z,27.70
2022-07-28T12:52:17.112Z,27.70
2022-07-28T12:54:53.744Z,27.70
2022-07-28T12:57:47.993Z,27.60
2022-07-28T13:00:39.856Z,27.50
2022-07-28T13:03:24.296Z,27.30
2022-07-28T13:06:05.502Z,27.40
2022-07-28T13:08:44.554Z,27.40
2022-07-28T13:11:42.677Z,27.60
2022-07-28T13:14:03.179Z,27.60
2022-07-28T13:16:31.358Z,27.60
2022-07-28T13:19:04.613Z,27.70
2022-07-28T13:21:55.990Z,27.70
2022-07-28T13:24:27.396Z,27.80
2022-07-28T13:26:55.731Z,27.70
2022-07-28T13:29:23.916Z,27.60
2022-07-28T13:31:54.625Z,27.50
2022-07-28T13:34:24.522Z,27.40
2022-07-28T13:36:53.098Z,27.30
2022-07-28T13:39:21.307Z,27.30
2022-07-28T13:41:58.329Z,27.30
2022-07-28T13:44:27.184Z,27.30
2022-07-28T13:46:55.652Z,27.30
2022-07-28T13:49:27.298Z,27.30
2022-07-28T13:51:55.771Z,27.40
2022-07-28T13:54:24.038Z,27.40
2022-07-28T13:56:52.219Z,27.40
2022-07-28T13:59:20.268Z,27.40
2022-07-28T14:01:49.883Z,27.30
2022-07-28T14:04:21.332Z,27.30
2022-07-28T14:06:51.415Z,27.30
2022-07-28T14:09:21.055Z,27.30
2022-07-28T14:11:53.442Z,27.30
2022-07-28T14:14:24.029Z,27.30
2022-07-28T14:16:54.504Z,27.40
2022-07-28T14:19:37.899Z,27.30
2022-07-28T14:22:13.707Z,27.30
2022-07-28T14:24:42.686Z,27.10
2022-07-28T14:27:11.039Z,27.10
2022-07-28T14:29:39.375Z,27.10
2022-07-28T14:32:07.869Z,27.00
2022-07-28T14:34:35.984Z,27.00
2022-07-28T14:37:08.580Z,27.00
2022-07-28T14:39:39.730Z,27.00
2022-07-28T14:42:08.084Z,27.00
2022-07-28T14:44:36.183Z,26.90
2022-07-28T14:47:04.611Z,26.90
2022-07-28T14:49:32.836Z,26.80
2022-07-28T14:52:01.024Z,26.80
2022-07-28T14:54:30.800Z,26.70
2022-07-28T14:56:58.856Z,26.70
2022-07-28T14:59:26.870Z,26.70
2022-07-28T15:01:55.018Z,26.60
2022-07-28T15:04:23.312Z,26.70
2022-07-28T15:06:51.443Z,26.70
2022-07-28T15:09:19.727Z,26.70
2022-07-28T15:11:49.076Z,26.70
2022-07-28T15:14:20.385Z,26.80
2022-07-28T15:16:49.492Z,26.80
2022-07-28T15:19:17.615Z,26.70
2022-07-28T15:21:47.449Z,26.80
2022-07-28T15:24:16.415Z,26.90
2022-07-28T15:26:48.422Z,27.10
2022-07-28T15:29:16.654Z,27.10
2022-07-28T15:31:47.332Z,27.20
2022-07-28T15:34:16.400Z,27.20
2022-07-28T15:36:44.797Z,27.30
2022-07-28T15:39:14.860Z,27.20
2022-07-28T15:41:44.002Z,27.10
2022-07-28T15:44:16.379Z,26.90
2022-07-28T15:46:46.619Z,26.70
2022-07-28T15:49:15.107Z,26.50
2022-07-28T15:51:43.237Z,26.50
2022-07-28T15:54:11.439Z,26.40
2022-07-28T15:56:39.512Z,26.30
2022-07-28T15:59:08.047Z,26.20
2022-07-28T16:01:39.822Z,26.10
2022-07-28T16:04:11.571Z,26.10
2022-07-28T16:06:57.296Z,26.10
2022-07-28T16:09:25.619Z,26.00
2022-07-28T16:12:14.395Z,25.90
2022-07-28T16:14:43.042Z,25.80
2022-07-28T16:17:12.741Z,25.80
2022-07-28T16:19:49.848Z,25.80
2022-07-28T16:22:18.709Z,25.70
2022-07-28T16:24:47.594Z,25.70
2022-07-28T16:27:15.731Z,25.60
2022-07-28T16:29:43.811Z,25.70
2022-07-28T16:32:13.401Z,25.70
2022-07-28T16:34:41.491Z,25.70
2022-07-28T16:37:09.592Z,25.70
2022-07-28T16:39:38.368Z,25.80
2022-07-28T16:42:06.882Z,25.90
2022-07-28T16:44:37.666Z,25.90
2022-07-28T16:47:06.083Z,25.90
2022-07-28T16:49:36.529Z,25.90
2022-07-28T16:52:04.831Z,25.80
2022-07-28T16:54:32.975Z,25.70
2022-07-28T16:57:01.043Z,25.80
2022-07-28T16:59:38.020Z,25.90
2022-07-28T17:02:16.138Z,25.90
2022-07-28T17:04:45.623Z,25.80
2022-07-28T17:07:14.078Z,25.70
2022-07-28T17:09:42.178Z,25.60
2022-07-28T17:12:10.435Z,25.50
2022-07-28T17:14:38.608Z,25.40
2022-07-28T17:17:06.701Z,25.20
2022-07-28T17:19:35.594Z,25.10
2022-07-28T17:22:07.472Z,25.10
2022-07-28T17:24:35.865Z,25.00
2022-07-28T17:27:36.837Z,24.80
2022-07-28T17:29:52.135Z,24.80
2022-07-28T17:32:20.200Z,24.70
2022-07-28T17:34:48.282Z,24.60
2022-07-28T17:37:18.046Z,24.60
2022-07-28T17:39:46.168Z,24.50
2022-07-28T17:42:14.374Z,24.40
2022-07-28T17:44:42.455Z,24.20
2022-07-28T17:47:10.566Z,24.10
2022-07-28T17:49:43.439Z,24.10
2022-07-28T17:52:13.374Z,23.90
2022-07-28T17:55:00.194Z,23.80
2022-07-28T17:57:30.535Z,23.70
2022-07-28T18:00:06.974Z,23.60
2022-07-28T18:02:40.164Z,23.40
2022-07-28T18:05:10.116Z,23.30
2022-07-28T18:07:50.508Z,23.20
2022-07-28T18:10:24.985Z,23.10
2022-07-28T18:12:55.223Z,23.00
2022-07-28T18:15:23.585Z,22.90
2022-07-28T18:17:55.563Z,22.80
2022-07-28T18:20:24.531Z,22.60
2022-07-28T18:22:57.344Z,22.50
2022-07-28T18:25:28.057Z,22.40
2022-07-28T18:27:56.378Z,22.30
2022-07-28T18:30:25.637Z,22.20
2022-07-28T18:32:54.556Z,22.20
2022-07-28T18:35:23.780Z,22.10
2022-07-28T18:37:52.558Z,22.00
2022-07-28T18:40:21.801Z,21.80
2022-07-28T18:42:51.851Z,21.80
2022-07-28T18:45:20.342Z,21.70
2022-07-28T18:47:49.138Z,21.60
2022-07-28T18:50:30.331Z,21.50
2022-07-28T18:53:00.640Z,21.50
2022-07-28T18:55:28.805Z,21.30
2022-07-28T18:57:58.154Z,21.20
2022-07-28T19:00:26.326Z,21.10
2022-07-28T19:02:54.380Z,21.00
2022-07-28T19:05:25.043Z,20.90
2022-07-28T19:07:53.161Z,20.80
2022-07-28T19:10:21.198Z,20.80
2022-07-28T19:12:50.858Z,20.70
2022-07-28T19:15:20.540Z,20.60
2022-07-28T19:18:10.431Z,20.60
2022-07-28T19:20:37.056Z,20.50
2022-07-28T19:23:05.720Z,20.40
2022-07-28T19:25:36.095Z,20.30
2022-07-28T19:28:04.744Z,20.20
2022-07-28T19:30:36.800Z,20.20
2022-07-28T19:33:05.401Z,20.10
2022-07-28T19:35:33.819Z,20.00
2022-07-28T19:38:02.768Z,20.00
2022-07-28T19:40:32.083Z,20.00
2022-07-28T19:43:00.573Z,19.90
2022-07-28T19:45:28.916Z,19.80
2022-07-28T19:47:58.394Z,19.70
2022-07-28T19:50:26.658Z,19.70
2022-07-28T19:52:54.990Z,19.60
2022-07-28T19:55:27.119Z,19.50
2022-07-28T19:57:59.219Z,19.50
2022-07-28T20:00:27.434Z,19.40
2022-07-28T20:02:55.700Z,19.40
2022-07-28T20:05:25.402Z,19.30
2022-07-28T20:07:54.199Z,19.20
2022-07-28T20:10:22.509Z,19.20
2022-07-28T20:12:51.825Z,19.20
2022-07-28T20:15:20.146Z,19.10
2022-07-28T20:17:48.489Z,19.10
2022-07-28T20:20:16.782Z,19.10
2022-07-28T20:22:47.162Z,19.10
2022-07-28T20:25:15.908Z,19.10
2022-07-28T20:27:44.931Z,19.00
2022-07-28T20:30:14.471Z,19.00
2022-07-28T20:32:44.230Z,19.00
2022-07-28T20:35:12.978Z,18.90
2022-07-28T20:37:41.199Z,18.90
2022-07-28T20:40:12.093Z,18.80
2022-07-28T20:42:40.436Z,18.80
2022-07-28T20:45:09.061Z,18.80
2022-07-28T20:47:37.244Z,18.80
2022-07-28T20:50:06.364Z,18.70
2022-07-28T20:52:34.876Z,18.70
2022-07-28T20:55:04.579Z,18.60
2022-07-28T20:57:34.111Z,18.60
2022-07-28T21:00:03.357Z,18.60
2022-07-28T21:02:31.689Z,18.50
2022-07-28T21:04:59.755Z,18.50
2022-07-28T21:08:00.697Z,18.50
2022-07-28T21:10:19.223Z,18.40
2022-07-28T21:12:49.143Z,18.30
2022-07-28T21:15:17.181Z,18.30
2022-07-28T21:17:45.417Z,18.30
2022-07-28T21:20:14.118Z,18.20
2022-07-28T21:22:42.232Z,18.20
2022-07-28T21:25:10.875Z,18.10
2022-07-28T21:27:59.612Z,18.10
2022-07-28T21:30:32.128Z,18.10
2022-07-28T21:33:00.367Z,18.00
2022-07-28T21:35:29.513Z,18.00
2022-07-28T21:37:57.547Z,18.00
2022-07-28T21:40:25.967Z,18.10
2022-07-28T21:42:54.059Z,18.10
2022-07-28T21:45:22.385Z,18.10
2022-07-28T21:47:54.063Z,18.10
2022-07-28T21:50:22.906Z,18.10
2022-07-28T21:52:51.433Z,18.00
2022-07-28T21:55:19.498Z,18.10
2022-07-28T21:57:49.540Z,18.00
2022-07-28T22:00:22.552Z,18.00
2022-07-28T22:02:50.838Z,18.00
2022-07-28T22:05:20.812Z,18.00
2022-07-28T22:07:49.137Z,18.00
2022-07-28T22:10:17.627Z,18.00
2022-07-28T22:12:45.828Z,18.00
2022-07-28T22:15:14.107Z,17.90
2022-07-28T22:17:42.646Z,17.90
2022-07-28T22:20:12.443Z,17.90
2022-07-28T22:22:42.087Z,17.80
2022-07-28T22:25:11.060Z,17.80
2022-07-28T22:27:39.134Z,17.80
2022-07-28T22:30:08.909Z,17.70
2022-07-28T22:32:39.624Z,17.70
2022-07-28T22:35:09.667Z,17.70
2022-07-28T22:37:37.985Z,17.70
2022-07-28T22:40:11.959Z,17.70
2022-07-28T22:42:40.223Z,17.70
2022-07-28T22:45:09.552Z,17.70
2022-07-28T22:47:37.669Z,17.60
2022-07-28T22:50:06.981Z,17.50
2022-07-28T22:52:35.036Z,17.50
2022-07-28T22:57:56.400Z,17.50
2022-07-28T23:00:24.897Z,17.40
2022-07-28T23:02:52.939Z,17.50
2022-07-28T23:05:21.400Z,17.50
2022-07-28T23:07:52.788Z,17.50
2022-07-28T23:10:25.799Z,17.50
2022-07-28T23:12:57.326Z,17.50
2022-07-28T23:15:40.827Z,17.50
2022-07-28T23:18:10.132Z,17.40
2022-07-28T23:20:39.047Z,17.30
2022-07-28T23:23:15.600Z,17.30
2022-07-28T23:25:54.359Z,17.20
2022-07-28T23:28:22.600Z,17.20
2022-07-28T23:30:52.187Z,17.30
2022-07-28T23:33:55.411Z,17.30
2022-07-28T23:36:16.890Z,17.30
2022-07-28T23:38:55.508Z,17.30
2022-07-28T23:41:23.679Z,17.30
2022-07-28T23:43:51.797Z,17.30
2022-07-28T23:46:21.744Z,17.30
2022-07-28T23:48:50.774Z,17.20
2022-07-28T23:51:18.924Z,17.20
2022-07-28T23:53:46.976Z,17.10
2022-07-28T23:56:16.600Z,17.10
2022-07-28T23:58:44.820Z,17.00
